sensor_id;sensor_type;location;lat;lon;timestamp;pressure;altitude;pressure_sealevel;temperature
34023;BMP280;20673;48.980;8.138;2024-01-30T00:00:16;101552.77;;;1.12
34023;BMP280;20673;48.980;8.138;2024-01-30T00:02:42;101550.81;;;1.12
34023;BMP280;20673;48.980;8.138;2024-01-30T00:05:09;101553.34;;;1.14
34023;BMP280;20673;48.980;8.138;2024-01-30T00:07:35;101546.55;;;1.12
34023;BMP280;20673;48.980;8.138;2024-01-30T00:10:01;101548.44;;;1.10
34023;BMP280;20673;48.980;8.138;2024-01-30T00:12:27;101545.12;;;1.07
34023;BMP280;20673;48.980;8.138;2024-01-30T00:14:53;101545.68;;;1.06
34023;BMP280;20673;48.980;8.138;2024-01-30T00:17:20;101546.75;;;1.09
34023;BMP280;20673;48.980;8.138;2024-01-30T00:19:46;101549.91;;;1.10
34023;BMP280;20673;48.980;8.138;2024-01-30T00:22:12;101555.98;;;1.09
34023;BMP280;20673;48.980;8.138;2024-01-30T00:24:38;101552.99;;;1.06
34023;BMP280;20673;48.980;8.138;2024-01-30T00:27:04;101553.79;;;1.03
34023;BMP280;20673;48.980;8.138;2024-01-30T00:29:30;101553.91;;;1.01
34023;BMP280;20673;48.980;8.138;2024-01-30T00:31:58;101554.50;;;0.98
34023;BMP280;20673;48.980;8.138;2024-01-30T00:34:25;101553.51;;;0.97
34023;BMP280;20673;48.980;8.138;2024-01-30T00:36:51;101555.14;;;0.99
34023;BMP280;20673;48.980;8.138;2024-01-30T00:39:17;101550.73;;;0.97
34023;BMP280;20673;48.980;8.138;2024-01-30T00:41:45;101555.88;;;0.96
34023;BMP280;20673;48.980;8.138;2024-01-30T00:44:11;101556.06;;;0.94
34023;BMP280;20673;48.980;8.138;2024-01-30T00:46:37;101549.03;;;0.89
34023;BMP280;20673;48.980;8.138;2024-01-30T00:49:03;101551.59;;;0.87
34023;BMP280;20673;48.980;8.138;2024-01-30T00:51:29;101548.25;;;0.84
34023;BMP280;20673;48.980;8.138;2024-01-30T00:53:55;101553.81;;;0.84
34023;BMP280;20673;48.980;8.138;2024-01-30T00:56:21;101552.66;;;0.84
34023;BMP280;20673;48.980;8.138;2024-01-30T00:58:47;101550.61;;;0.83
34023;BMP280;20673;48.980;8.138;2024-01-30T01:01:14;101548.42;;;0.83
34023;BMP280;20673;48.980;8.138;2024-01-30T01:03:40;101548.60;;;0.81
34023;BMP280;20673;48.980;8.138;2024-01-30T01:06:08;101552.17;;;0.84
34023;BMP280;20673;48.980;8.138;2024-01-30T01:08:34;101557.48;;;0.82
34023;BMP280;20673;48.980;8.138;2024-01-30T01:11:00;101555.84;;;0.84
34023;BMP280;20673;48.980;8.138;2024-01-30T01:13:26;101561.33;;;0.86
34023;BMP280;20673;48.980;8.138;2024-01-30T01:15:52;101558.03;;;0.90
34023;BMP280;20673;48.980;8.138;2024-01-30T01:18:18;101558.72;;;0.85
34023;BMP280;20673;48.980;8.138;2024-01-30T01:20:44;101552.00;;;0.86
34023;BMP280;20673;48.980;8.138;2024-01-30T01:23:10;101552.40;;;0.85
34023;BMP280;20673;48.980;8.138;2024-01-30T01:25:36;101555.12;;;0.84
34023;BMP280;20673;48.980;8.138;2024-01-30T01:28:03;101551.29;;;0.80
34023;BMP280;20673;48.980;8.138;2024-01-30T01:30:29;101545.57;;;0.79
34023;BMP280;20673;48.980;8.138;2024-01-30T01:32:56;101548.59;;;0.77
34023;BMP280;20673;48.980;8.138;2024-01-30T01:35:24;101549.68;;;0.76
34023;BMP280;20673;48.980;8.138;2024-01-30T01:37:51;101552.03;;;0.77
34023;BMP280;20673;48.980;8.138;2024-01-30T01:40:19;101546.15;;;0.75
34023;BMP280;20673;48.980;8.138;2024-01-30T01:42:45;101543.72;;;0.72
34023;BMP280;20673;48.980;8.138;2024-01-30T01:45:11;101546.42;;;0.69
34023;BMP280;20673;48.980;8.138;2024-01-30T01:47:38;101543.16;;;0.67
34023;BMP280;20673;48.980;8.138;2024-01-30T01:50:05;101539.08;;;0.67
34023;BMP280;20673;48.980;8.138;2024-01-30T01:52:31;101535.31;;;0.67
34023;BMP280;20673;48.980;8.138;2024-01-30T01:54:58;101535.72;;;0.65
34023;BMP280;20673;48.980;8.138;2024-01-30T01:57:24;101539.62;;;0.68
34023;BMP280;20673;48.980;8.138;2024-01-30T01:59:51;101531.35;;;0.72
34023;BMP280;20673;48.980;8.138;2024-01-30T02:02:19;101535.75;;;0.75
34023;BMP280;20673;48.980;8.138;2024-01-30T02:04:46;101532.42;;;0.72
34023;BMP280;20673;48.980;8.138;2024-01-30T02:07:12;101536.85;;;0.72
34023;BMP280;20673;48.980;8.138;2024-01-30T02:09:38;101535.93;;;0.71
34023;BMP280;20673;48.980;8.138;2024-01-30T02:12:05;101538.17;;;0.70
34023;BMP280;20673;48.980;8.138;2024-01-30T02:14:31;101538.90;;;0.68
34023;BMP280;20673;48.980;8.138;2024-01-30T02:16:57;101536.62;;;0.66
34023;BMP280;20673;48.980;8.138;2024-01-30T02:19:23;101536.93;;;0.64
34023;BMP280;20673;48.980;8.138;2024-01-30T02:21:50;101541.36;;;0.61
34023;BMP280;20673;48.980;8.138;2024-01-30T02:24:16;101542.93;;;0.61
34023;BMP280;20673;48.980;8.138;2024-01-30T02:26:42;101545.55;;;0.62
34023;BMP280;20673;48.980;8.138;2024-01-30T02:29:08;101543.17;;;0.61
34023;BMP280;20673;48.980;8.138;2024-01-30T02:31:34;101541.04;;;0.60
34023;BMP280;20673;48.980;8.138;2024-01-30T02:34:00;101541.22;;;0.59
34023;BMP280;20673;48.980;8.138;2024-01-30T02:36:26;101538.76;;;0.60
34023;BMP280;20673;48.980;8.138;2024-01-30T02:38:52;101540.39;;;0.61
34023;BMP280;20673;48.980;8.138;2024-01-30T02:41:18;101539.72;;;0.63
34023;BMP280;20673;48.980;8.138;2024-01-30T02:43:44;101542.92;;;0.64
34023;BMP280;20673;48.980;8.138;2024-01-30T02:46:10;101535.25;;;0.60
34023;BMP280;20673;48.980;8.138;2024-01-30T02:48:36;101543.58;;;0.59
34023;BMP280;20673;48.980;8.138;2024-01-30T02:51:04;101539.92;;;0.57
34023;BMP280;20673;48.980;8.138;2024-01-30T02:53:31;101539.33;;;0.57
34023;BMP280;20673;48.980;8.138;2024-01-30T02:55:57;101542.59;;;0.59
34023;BMP280;20673;48.980;8.138;2024-01-30T02:58:23;101539.17;;;0.57
34023;BMP280;20673;48.980;8.138;2024-01-30T03:00:49;101539.33;;;0.59
34023;BMP280;20673;48.980;8.138;2024-01-30T03:03:15;101539.76;;;0.56
34023;BMP280;20673;48.980;8.138;2024-01-30T03:05:41;101535.00;;;0.59
34023;BMP280;20673;48.980;8.138;2024-01-30T03:08:07;101539.84;;;0.55
34023;BMP280;20673;48.980;8.138;2024-01-30T03:10:33;101538.87;;;0.52
34023;BMP280;20673;48.980;8.138;2024-01-30T03:12:59;101536.50;;;0.51
34023;BMP280;20673;48.980;8.138;2024-01-30T03:15:25;101537.54;;;0.50
34023;BMP280;20673;48.980;8.138;2024-01-30T03:17:53;101540.75;;;0.50
34023;BMP280;20673;48.980;8.138;2024-01-30T03:20:19;101543.03;;;0.52
34023;BMP280;20673;48.980;8.138;2024-01-30T03:22:45;101542.04;;;0.54
34023;BMP280;20673;48.980;8.138;2024-01-30T03:25:12;101544.59;;;0.54
34023;BMP280;20673;48.980;8.138;2024-01-30T03:27:38;101539.84;;;0.54
34023;BMP280;20673;48.980;8.138;2024-01-30T03:30:05;101545.14;;;0.55
34023;BMP280;20673;48.980;8.138;2024-01-30T03:32:32;101543.67;;;0.55
34023;BMP280;20673;48.980;8.138;2024-01-30T03:34:58;101541.97;;;0.54
34023;BMP280;20673;48.980;8.138;2024-01-30T03:37:24;101544.58;;;0.55
34023;BMP280;20673;48.980;8.138;2024-01-30T03:39:50;101544.81;;;0.55
34023;BMP280;20673;48.980;8.138;2024-01-30T03:42:17;101538.87;;;0.53
34023;BMP280;20673;48.980;8.138;2024-01-30T03:44:43;101543.84;;;0.52
34023;BMP280;20673;48.980;8.138;2024-01-30T03:47:09;101541.82;;;0.52
34023;BMP280;20673;48.980;8.138;2024-01-30T03:49:35;101544.09;;;0.54
34023;BMP280;20673;48.980;8.138;2024-01-30T03:52:01;101542.62;;;0.53
34023;BMP280;20673;48.980;8.138;2024-01-30T03:54:27;101541.33;;;0.52
34023;BMP280;20673;48.980;8.138;2024-01-30T03:56:53;101550.88;;;0.52
34023;BMP280;20673;48.980;8.138;2024-01-30T03:59:19;101548.04;;;0.51
34023;BMP280;20673;48.980;8.138;2024-01-30T04:01:47;101548.36;;;0.51
34023;BMP280;20673;48.980;8.138;2024-01-30T04:04:13;101545.64;;;0.53
34023;BMP280;20673;48.980;8.138;2024-01-30T04:06:39;101547.37;;;0.53
34023;BMP280;20673;48.980;8.138;2024-01-30T04:09:05;101544.65;;;0.54
34023;BMP280;20673;48.980;8.138;2024-01-30T04:11:31;101542.19;;;0.55
34023;BMP280;20673;48.980;8.138;2024-01-30T04:13:57;101546.54;;;0.54
34023;BMP280;20673;48.980;8.138;2024-01-30T04:16:24;101539.84;;;0.53
34023;BMP280;20673;48.980;8.138;2024-01-30T04:18:51;101537.29;;;0.58
34023;BMP280;20673;48.980;8.138;2024-01-30T04:21:20;101539.50;;;0.57
34023;BMP280;20673;48.980;8.138;2024-01-30T04:23:50;101541.61;;;0.58
34023;BMP280;20673;48.980;8.138;2024-01-30T04:26:17;101536.31;;;0.59
34023;BMP280;20673;48.980;8.138;2024-01-30T04:28:44;101539.75;;;0.58
34023;BMP280;20673;48.980;8.138;2024-01-30T04:31:11;101540.25;;;0.57
34023;BMP280;20673;48.980;8.138;2024-01-30T04:33:38;101541.08;;;0.56
34023;BMP280;20673;48.980;8.138;2024-01-30T04:36:08;101542.37;;;0.57
34023;BMP280;20673;48.980;8.138;2024-01-30T04:38:35;101538.75;;;0.62
34023;BMP280;20673;48.980;8.138;2024-01-30T04:41:01;101535.23;;;0.64
34023;BMP280;20673;48.980;8.138;2024-01-30T04:43:27;101539.40;;;0.62
34023;BMP280;20673;48.980;8.138;2024-01-30T04:45:53;101549.62;;;0.59
34023;BMP280;20673;48.980;8.138;2024-01-30T04:48:19;101540.70;;;0.62
34023;BMP280;20673;48.980;8.138;2024-01-30T04:50:45;101540.30;;;0.59
34023;BMP280;20673;48.980;8.138;2024-01-30T04:53:11;101547.35;;;0.57
34023;BMP280;20673;48.980;8.138;2024-01-30T04:55:37;101545.87;;;0.58
34023;BMP280;20673;48.980;8.138;2024-01-30T04:58:03;101554.15;;;0.58
34023;BMP280;20673;48.980;8.138;2024-01-30T05:00:29;101553.89;;;0.57
34023;BMP280;20673;48.980;8.138;2024-01-30T05:02:56;101555.06;;;0.54
34023;BMP280;20673;48.980;8.138;2024-01-30T05:05:22;101555.46;;;0.57
34023;BMP280;20673;48.980;8.138;2024-01-30T05:07:48;101553.87;;;0.60
34023;BMP280;20673;48.980;8.138;2024-01-30T05:10:14;101556.98;;;0.60
34023;BMP280;20673;48.980;8.138;2024-01-30T05:12:40;101553.97;;;0.61
34023;BMP280;20673;48.980;8.138;2024-01-30T05:15:08;101551.70;;;0.57
34023;BMP280;20673;48.980;8.138;2024-01-30T05:17:34;101549.65;;;0.54
34023;BMP280;20673;48.980;8.138;2024-01-30T05:20:00;101554.48;;;0.57
34023;BMP280;20673;48.980;8.138;2024-01-30T05:22:26;101548.90;;;0.60
34023;BMP280;20673;48.980;8.138;2024-01-30T05:24:52;101555.91;;;0.64
34023;BMP280;20673;48.980;8.138;2024-01-30T05:27:18;101559.03;;;0.62
34023;BMP280;20673;48.980;8.138;2024-01-30T05:29:44;101553.06;;;0.60
34023;BMP280;20673;48.980;8.138;2024-01-30T05:32:11;101553.81;;;0.59
34023;BMP280;20673;48.980;8.138;2024-01-30T05:34:37;101558.23;;;0.58
34023;BMP280;20673;48.980;8.138;2024-01-30T05:37:03;101559.11;;;0.59
34023;BMP280;20673;48.980;8.138;2024-01-30T05:39:30;101566.08;;;0.59
34023;BMP280;20673;48.980;8.138;2024-01-30T05:41:58;101566.66;;;0.61
34023;BMP280;20673;48.980;8.138;2024-01-30T05:44:24;101571.00;;;0.58
34023;BMP280;20673;48.980;8.138;2024-01-30T05:46:50;101568.14;;;0.55
34023;BMP280;20673;48.980;8.138;2024-01-30T05:49:16;101567.08;;;0.51
34023;BMP280;20673;48.980;8.138;2024-01-30T05:51:42;101563.23;;;0.48
34023;BMP280;20673;48.980;8.138;2024-01-30T05:54:08;101561.45;;;0.45
34023;BMP280;20673;48.980;8.138;2024-01-30T05:56:34;101563.59;;;0.43
34023;BMP280;20673;48.980;8.138;2024-01-30T05:59:00;101560.17;;;0.40
34023;BMP280;20673;48.980;8.138;2024-01-30T06:01:26;101565.54;;;0.37
34023;BMP280;20673;48.980;8.138;2024-01-30T06:03:52;101568.90;;;0.35
34023;BMP280;20673;48.980;8.138;2024-01-30T06:06:18;101575.30;;;0.36
34023;BMP280;20673;48.980;8.138;2024-01-30T06:08:44;101572.82;;;0.42
34023;BMP280;20673;48.980;8.138;2024-01-30T06:11:11;101574.89;;;0.41
34023;BMP280;20673;48.980;8.138;2024-01-30T06:13:38;101573.81;;;0.41
34023;BMP280;20673;48.980;8.138;2024-01-30T06:16:04;101571.45;;;0.42
34023;BMP280;20673;48.980;8.138;2024-01-30T06:18:31;101569.37;;;0.43
34023;BMP280;20673;48.980;8.138;2024-01-30T06:20:57;101568.89;;;0.44
34023;BMP280;20673;48.980;8.138;2024-01-30T06:23:23;101571.43;;;0.45
34023;BMP280;20673;48.980;8.138;2024-01-30T06:25:49;101565.86;;;0.45
34023;BMP280;20673;48.980;8.138;2024-01-30T06:28:15;101571.68;;;0.41
34023;BMP280;20673;48.980;8.138;2024-01-30T06:30:42;101570.78;;;0.38
34023;BMP280;20673;48.980;8.138;2024-01-30T06:33:08;101570.95;;;0.36
34023;BMP280;20673;48.980;8.138;2024-01-30T06:35:34;101568.01;;;0.34
34023;BMP280;20673;48.980;8.138;2024-01-30T06:38:01;101562.22;;;0.31
34023;BMP280;20673;48.980;8.138;2024-01-30T06:40:27;101566.79;;;0.30
34023;BMP280;20673;48.980;8.138;2024-01-30T06:42:53;101572.18;;;0.31
34023;BMP280;20673;48.980;8.138;2024-01-30T06:45:20;101573.33;;;0.33
34023;BMP280;20673;48.980;8.138;2024-01-30T06:47:46;101570.89;;;0.28
34023;BMP280;20673;48.980;8.138;2024-01-30T06:50:12;101567.36;;;0.29
34023;BMP280;20673;48.980;8.138;2024-01-30T06:52:38;101570.32;;;0.32
34023;BMP280;20673;48.980;8.138;2024-01-30T06:55:05;101567.76;;;0.33
34023;BMP280;20673;48.980;8.138;2024-01-30T06:57:31;101570.06;;;0.32
34023;BMP280;20673;48.980;8.138;2024-01-30T06:59:57;101568.50;;;0.28
34023;BMP280;20673;48.980;8.138;2024-01-30T07:02:23;101565.08;;;0.28
34023;BMP280;20673;48.980;8.138;2024-01-30T07:04:50;101568.93;;;0.28
34023;BMP280;20673;48.980;8.138;2024-01-30T07:07:16;101571.78;;;0.26
34023;BMP280;20673;48.980;8.138;2024-01-30T07:09:42;101570.47;;;0.28
34023;BMP280;20673;48.980;8.138;2024-01-30T07:12:08;101570.47;;;0.26
34023;BMP280;20673;48.980;8.138;2024-01-30T07:14:34;101575.53;;;0.28
34023;BMP280;20673;48.980;8.138;2024-01-30T07:17:02;101574.16;;;0.28
34023;BMP280;20673;48.980;8.138;2024-01-30T07:19:28;101578.31;;;0.28
34023;BMP280;20673;48.980;8.138;2024-01-30T07:21:54;101577.59;;;0.28
34023;BMP280;20673;48.980;8.138;2024-01-30T07:24:21;101578.39;;;0.33
34023;BMP280;20673;48.980;8.138;2024-01-30T07:26:47;101576.61;;;0.37
34023;BMP280;20673;48.980;8.138;2024-01-30T07:29:13;101577.34;;;0.41
34023;BMP280;20673;48.980;8.138;2024-01-30T07:31:39;101575.36;;;0.44
34023;BMP280;20673;48.980;8.138;2024-01-30T07:34:05;101574.29;;;0.47
34023;BMP280;20673;48.980;8.138;2024-01-30T07:36:31;101577.81;;;0.51
34023;BMP280;20673;48.980;8.138;2024-01-30T07:38:57;101586.53;;;0.54
34023;BMP280;20673;48.980;8.138;2024-01-30T07:41:23;101588.89;;;0.58
34023;BMP280;20673;48.980;8.138;2024-01-30T07:43:51;101583.83;;;0.62
34023;BMP280;20673;48.980;8.138;2024-01-30T07:46:17;101586.34;;;0.69
34023;BMP280;20673;48.980;8.138;2024-01-30T07:48:43;101590.49;;;0.75
34023;BMP280;20673;48.980;8.138;2024-01-30T07:51:10;101587.04;;;0.82
34023;BMP280;20673;48.980;8.138;2024-01-30T07:53:36;101589.28;;;0.90
34023;BMP280;20673;48.980;8.138;2024-01-30T07:56:02;101591.06;;;0.98
34023;BMP280;20673;48.980;8.138;2024-01-30T07:58:28;101591.45;;;1.07
34023;BMP280;20673;48.980;8.138;2024-01-30T08:00:54;101596.86;;;1.20
34023;BMP280;20673;48.980;8.138;2024-01-30T08:03:22;101592.64;;;1.30
34023;BMP280;20673;48.980;8.138;2024-01-30T08:05:48;101591.69;;;1.41
34023;BMP280;20673;48.980;8.138;2024-01-30T08:08:14;101590.40;;;1.51
34023;BMP280;20673;48.980;8.138;2024-01-30T08:10:40;101596.71;;;1.63
34023;BMP280;20673;48.980;8.138;2024-01-30T08:13:06;101601.57;;;1.71
34023;BMP280;20673;48.980;8.138;2024-01-30T08:15:34;101599.62;;;1.79
34023;BMP280;20673;48.980;8.138;2024-01-30T08:18:01;101598.12;;;1.93
34023;BMP280;20673;48.980;8.138;2024-01-30T08:20:27;101597.79;;;2.06
34023;BMP280;20673;48.980;8.138;2024-01-30T08:22:53;101597.14;;;2.16
34023;BMP280;20673;48.980;8.138;2024-01-30T08:25:19;101594.11;;;2.26
34023;BMP280;20673;48.980;8.138;2024-01-30T08:27:45;101594.76;;;2.34
34023;BMP280;20673;48.980;8.138;2024-01-30T08:30:12;101599.37;;;2.40
34023;BMP280;20673;48.980;8.138;2024-01-30T08:32:42;101597.75;;;2.38
34023;BMP280;20673;48.980;8.138;2024-01-30T08:35:08;101601.48;;;2.42
34023;BMP280;20673;48.980;8.138;2024-01-30T08:37:34;101601.56;;;2.44
34023;BMP280;20673;48.980;8.138;2024-01-30T08:40:00;101599.00;;;2.47
34023;BMP280;20673;48.980;8.138;2024-01-30T08:42:28;101598.96;;;2.50
34023;BMP280;20673;48.980;8.138;2024-01-30T08:44:54;101599.51;;;2.52
34023;BMP280;20673;48.980;8.138;2024-01-30T08:47:21;101600.62;;;2.55
34023;BMP280;20673;48.980;8.138;2024-01-30T08:49:47;101601.76;;;2.63
34023;BMP280;20673;48.980;8.138;2024-01-30T08:52:13;101604.20;;;2.64
34023;BMP280;20673;48.980;8.138;2024-01-30T08:54:39;101605.63;;;2.71
34023;BMP280;20673;48.980;8.138;2024-01-30T08:57:05;101606.23;;;2.77
34023;BMP280;20673;48.980;8.138;2024-01-30T08:59:31;101610.73;;;2.86
34023;BMP280;20673;48.980;8.138;2024-01-30T09:01:57;101613.39;;;2.91
34023;BMP280;20673;48.980;8.138;2024-01-30T09:04:25;101613.83;;;3.01
34023;BMP280;20673;48.980;8.138;2024-01-30T09:06:51;101613.65;;;3.14
34023;BMP280;20673;48.980;8.138;2024-01-30T09:09:17;101609.54;;;3.29
34023;BMP280;20673;48.980;8.138;2024-01-30T09:11:44;101610.14;;;3.39
34023;BMP280;20673;48.980;8.138;2024-01-30T09:14:10;101611.93;;;3.48
34023;BMP280;20673;48.980;8.138;2024-01-30T09:16:36;101619.69;;;3.61
34023;BMP280;20673;48.980;8.138;2024-01-30T09:19:02;101608.58;;;3.74
34023;BMP280;20673;48.980;8.138;2024-01-30T09:21:28;101607.72;;;3.88
34023;BMP280;20673;48.980;8.138;2024-01-30T09:23:54;101604.90;;;4.10
34023;BMP280;20673;48.980;8.138;2024-01-30T09:26:21;101604.29;;;4.32
34023;BMP280;20673;48.980;8.138;2024-01-30T09:28:47;101604.24;;;4.48
34023;BMP280;20673;48.980;8.138;2024-01-30T09:31:13;101610.73;;;4.57
34023;BMP280;20673;48.980;8.138;2024-01-30T09:33:39;101611.96;;;4.71
34023;BMP280;20673;48.980;8.138;2024-01-30T09:36:06;101611.75;;;4.78
34023;BMP280;20673;48.980;8.138;2024-01-30T09:38:32;101615.87;;;4.91
34023;BMP280;20673;48.980;8.138;2024-01-30T09:41:03;101613.75;;;5.06
34023;BMP280;20673;48.980;8.138;2024-01-30T09:43:33;101616.83;;;5.21
34023;BMP280;20673;48.980;8.138;2024-01-30T09:46:03;101621.59;;;5.34
34023;BMP280;20673;48.980;8.138;2024-01-30T09:48:33;101625.53;;;5.49
34023;BMP280;20673;48.980;8.138;2024-01-30T09:51:00;101627.67;;;5.70
34023;BMP280;20673;48.980;8.138;2024-01-30T09:53:26;101626.05;;;5.69
34023;BMP280;20673;48.980;8.138;2024-01-30T09:55:52;101631.19;;;5.68
34023;BMP280;20673;48.980;8.138;2024-01-30T09:58:18;101633.53;;;5.73
34023;BMP280;20673;48.980;8.138;2024-01-30T10:00:45;101638.98;;;5.73
34023;BMP280;20673;48.980;8.138;2024-01-30T10:03:11;101634.67;;;5.91
34023;BMP280;20673;48.980;8.138;2024-01-30T10:05:40;101635.18;;;5.91
34023;BMP280;20673;48.980;8.138;2024-01-30T10:08:07;101640.96;;;6.02
34023;BMP280;20673;48.980;8.138;2024-01-30T10:10:34;101644.07;;;6.10
34023;BMP280;20673;48.980;8.138;2024-01-30T10:13:01;101644.42;;;6.26
34023;BMP280;20673;48.980;8.138;2024-01-30T10:15:28;101647.58;;;6.25
34023;BMP280;20673;48.980;8.138;2024-01-30T10:17:55;101647.04;;;6.19
34023;BMP280;20673;48.980;8.138;2024-01-30T10:20:21;101641.15;;;6.32
34023;BMP280;20673;48.980;8.138;2024-01-30T10:22:49;101645.29;;;6.44
34023;BMP280;20673;48.980;8.138;2024-01-30T10:25:15;101648.37;;;6.55
34023;BMP280;20673;48.980;8.138;2024-01-30T10:27:42;101640.34;;;6.53
34023;BMP280;20673;48.980;8.138;2024-01-30T10:30:08;101639.97;;;6.68
34023;BMP280;20673;48.980;8.138;2024-01-30T10:32:35;101641.17;;;6.72
34023;BMP280;20673;48.980;8.138;2024-01-30T10:35:01;101642.39;;;6.90
34023;BMP280;20673;48.980;8.138;2024-01-30T10:37:30;101639.51;;;6.96
34023;BMP280;20673;48.980;8.138;2024-01-30T10:40:42;101643.47;;;7.05
34023;BMP280;20673;48.980;8.138;2024-01-30T10:43:12;101637.22;;;7.24
34023;BMP280;20673;48.980;8.138;2024-01-30T10:45:44;101639.43;;;7.48
34023;BMP280;20673;48.980;8.138;2024-01-30T10:48:18;101637.58;;;7.66
34023;BMP280;20673;48.980;8.138;2024-01-30T10:51:04;101627.65;;;7.87
34023;BMP280;20673;48.980;8.138;2024-01-30T10:53:31;101625.64;;;8.07
34023;BMP280;20673;48.980;8.138;2024-01-30T10:59:46;101623.81;;;8.56
34023;BMP280;20673;48.980;8.138;2024-01-30T11:02:33;101622.81;;;8.75
34023;BMP280;20673;48.980;8.138;2024-01-30T11:05:00;101626.03;;;8.97
34023;BMP280;20673;48.980;8.138;2024-01-30T11:07:28;101625.92;;;9.70
34023;BMP280;20673;48.980;8.138;2024-01-30T11:10:02;101612.32;;;10.23
34023;BMP280;20673;48.980;8.138;2024-01-30T11:12:33;101607.97;;;10.66
34023;BMP280;20673;48.980;8.138;2024-01-30T11:15:04;101615.56;;;11.09
34023;BMP280;20673;48.980;8.138;2024-01-30T11:20:31;101611.75;;;11.18
34023;BMP280;20673;48.980;8.138;2024-01-30T11:22:58;101619.50;;;10.97
34023;BMP280;20673;48.980;8.138;2024-01-30T11:25:26;101618.18;;;10.92
34023;BMP280;20673;48.980;8.138;2024-01-30T11:27:55;101620.01;;;11.05
34023;BMP280;20673;48.980;8.138;2024-01-30T11:30:28;101620.56;;;11.13
34023;BMP280;20673;48.980;8.138;2024-01-30T11:33:12;101620.01;;;11.05
34023;BMP280;20673;48.980;8.138;2024-01-30T11:38:12;101605.16;;;11.86
34023;BMP280;20673;48.980;8.138;2024-01-30T11:40:39;101606.04;;;12.30
34023;BMP280;20673;48.980;8.138;2024-01-30T11:43:08;101603.92;;;12.77
34023;BMP280;20673;48.980;8.138;2024-01-30T11:45:35;101599.79;;;12.98
34023;BMP280;20673;48.980;8.138;2024-01-30T11:48:03;101593.43;;;13.05
34023;BMP280;20673;48.980;8.138;2024-01-30T11:50:31;101588.06;;;13.21
34023;BMP280;20673;48.980;8.138;2024-01-30T11:52:58;101596.48;;;13.07
34023;BMP280;20673;48.980;8.138;2024-01-30T11:55:25;101587.22;;;13.07
34023;BMP280;20673;48.980;8.138;2024-01-30T11:57:54;101585.75;;;12.91
34023;BMP280;20673;48.980;8.138;2024-01-30T12:00:19;101575.34;;;12.66
34023;BMP280;20673;48.980;8.138;2024-01-30T12:02:51;101574.95;;;12.50
34023;BMP280;20673;48.980;8.138;2024-01-30T12:05:19;101572.87;;;12.40
34023;BMP280;20673;48.980;8.138;2024-01-30T12:07:46;101571.58;;;12.36
34023;BMP280;20673;48.980;8.138;2024-01-30T12:10:15;101569.97;;;12.17
34023;BMP280;20673;48.980;8.138;2024-01-30T12:12:48;101571.82;;;12.13
34023;BMP280;20673;48.980;8.138;2024-01-30T12:15:14;101573.92;;;12.19
34023;BMP280;20673;48.980;8.138;2024-01-30T12:17:40;101573.72;;;12.07
34023;BMP280;20673;48.980;8.138;2024-01-30T12:20:12;101570.29;;;12.07
34023;BMP280;20673;48.980;8.138;2024-01-30T12:22:47;101568.90;;;12.12
34023;BMP280;20673;48.980;8.138;2024-01-30T12:25:19;101568.58;;;11.93
34023;BMP280;20673;48.980;8.138;2024-01-30T12:27:48;101568.82;;;11.93
34023;BMP280;20673;48.980;8.138;2024-01-30T12:30:20;101563.25;;;11.76
34023;BMP280;20673;48.980;8.138;2024-01-30T12:32:49;101558.67;;;11.78
34023;BMP280;20673;48.980;8.138;2024-01-30T12:35:18;101556.64;;;11.82
34023;BMP280;20673;48.980;8.138;2024-01-30T12:37:46;101558.40;;;11.74
34023;BMP280;20673;48.980;8.138;2024-01-30T12:40:14;101554.09;;;11.68
34023;BMP280;20673;48.980;8.138;2024-01-30T12:42:41;101552.00;;;11.71
34023;BMP280;20673;48.980;8.138;2024-01-30T12:45:09;101549.53;;;11.77
34023;BMP280;20673;48.980;8.138;2024-01-30T12:47:35;101552.33;;;12.01
34023;BMP280;20673;48.980;8.138;2024-01-30T12:50:02;101550.65;;;12.13
34023;BMP280;20673;48.980;8.138;2024-01-30T12:52:29;101548.35;;;12.16
34023;BMP280;20673;48.980;8.138;2024-01-30T12:54:55;101544.25;;;12.26
34023;BMP280;20673;48.980;8.138;2024-01-30T12:57:21;101548.64;;;12.28
34023;BMP280;20673;48.980;8.138;2024-01-30T12:59:47;101547.43;;;12.23
34023;BMP280;20673;48.980;8.138;2024-01-30T13:02:14;101548.09;;;12.14
34023;BMP280;20673;48.980;8.138;2024-01-30T13:04:42;101546.90;;;12.13
34023;BMP280;20673;48.980;8.138;2024-01-30T13:07:08;101548.90;;;12.04
34023;BMP280;20673;48.980;8.138;2024-01-30T13:09:34;101547.29;;;11.99
34023;BMP280;20673;48.980;8.138;2024-01-30T13:12:00;101544.42;;;11.93
34023;BMP280;20673;48.980;8.138;2024-01-30T13:14:26;101547.03;;;11.89
34023;BMP280;20673;48.980;8.138;2024-01-30T13:16:53;101547.68;;;11.90
34023;BMP280;20673;48.980;8.138;2024-01-30T13:19:19;101548.35;;;11.86
34023;BMP280;20673;48.980;8.138;2024-01-30T13:21:45;101552.45;;;11.83
34023;BMP280;20673;48.980;8.138;2024-01-30T13:24:11;101551.78;;;11.82
34023;BMP280;20673;48.980;8.138;2024-01-30T13:26:37;101555.83;;;11.80
34023;BMP280;20673;48.980;8.138;2024-01-30T13:29:03;101553.37;;;11.79
34023;BMP280;20673;48.980;8.138;2024-01-30T13:31:29;101551.92;;;11.83
34023;BMP280;20673;48.980;8.138;2024-01-30T13:33:56;101554.02;;;11.81
34023;BMP280;20673;48.980;8.138;2024-01-30T13:36:22;101554.87;;;11.84
34023;BMP280;20673;48.980;8.138;2024-01-30T13:38:48;101553.54;;;11.80
34023;BMP280;20673;48.980;8.138;2024-01-30T13:41:14;101550.53;;;11.77
34023;BMP280;20673;48.980;8.138;2024-01-30T13:43:44;101548.43;;;11.73
34023;BMP280;20673;48.980;8.138;2024-01-30T13:46:10;101541.06;;;11.70
34023;BMP280;20673;48.980;8.138;2024-01-30T13:48:37;101545.43;;;11.67
34023;BMP280;20673;48.980;8.138;2024-01-30T13:51:03;101549.27;;;11.64
34023;BMP280;20673;48.980;8.138;2024-01-30T13:53:30;101546.15;;;11.51
34023;BMP280;20673;48.980;8.138;2024-01-30T13:55:56;101546.84;;;11.50
34023;BMP280;20673;48.980;8.138;2024-01-30T13:58:22;101550.03;;;11.50
34023;BMP280;20673;48.980;8.138;2024-01-30T14:00:48;101554.64;;;11.50
34023;BMP280;20673;48.980;8.138;2024-01-30T14:03:15;101557.29;;;11.48
34023;BMP280;20673;48.980;8.138;2024-01-30T14:05:41;101556.35;;;11.45
34023;BMP280;20673;48.980;8.138;2024-01-30T14:08:07;101557.63;;;11.40
34023;BMP280;20673;48.980;8.138;2024-01-30T14:10:34;101558.95;;;11.34
34023;BMP280;20673;48.980;8.138;2024-01-30T14:13:00;101556.83;;;11.34